sensor_id;sensor_type;location;lat;lon;timestamp;P1;durP1;ratioP1;P2;durP2;ratioP2
82871;SDS011;72646;43.596;1.428;2024-02-21T00:00:55;13.23;;;5.85;;
82871;SDS011;72646;43.596;1.428;2024-02-21T00:03:21;11.57;;;5.75;;
82871;SDS011;72646;43.596;1.428;2024-02-21T00:05:46;12.15;;;5.82;;
82871;SDS011;72646;43.596;1.428;2024-02-21T00:08:12;13.35;;;5.72;;
82871;SDS011;72646;43.596;1.428;2024-02-21T00:10:38;12.50;;;5.78;;
82871;SDS011;72646;43.596;1.428;2024-02-21T00:13:03;11.68;;;5.78;;
82871;SDS011;72646;43.596;1.428;2024-02-21T00:15:28;13.48;;;6.22;;
82871;SDS011;72646;43.596;1.428;2024-02-21T00:17:54;14.55;;;6.22;;
82871;SDS011;72646;43.596;1.428;2024-02-21T00:20:19;12.68;;;6.03;;
82871;SDS011;72646;43.596;1.428;2024-02-21T00:22:45;13.27;;;6.20;;
82871;SDS011;72646;43.596;1.428;2024-02-21T00:25:11;13.35;;;6.10;;
82871;SDS011;72646;43.596;1.428;2024-02-21T00:27:36;11.70;;;5.80;;
82871;SDS011;72646;43.596;1.428;2024-02-21T00:30:03;13.75;;;6.32;;
82871;SDS011;72646;43.596;1.428;2024-02-21T00:32:28;13.85;;;6.07;;
82871;SDS011;72646;43.596;1.428;2024-02-21T00:34:54;12.25;;;5.90;;
82871;SDS011;72646;43.596;1.428;2024-02-21T00:37:19;12.35;;;5.82;;
82871;SDS011;72646;43.596;1.428;2024-02-21T00:39:45;14.02;;;5.65;;
82871;SDS011;72646;43.596;1.428;2024-02-21T00:42:10;14.20;;;6.53;;
82871;SDS011;72646;43.596;1.428;2024-02-21T00:44:36;13.70;;;5.95;;
82871;SDS011;72646;43.596;1.428;2024-02-21T00:47:01;12.85;;;5.82;;
82871;SDS011;72646;43.596;1.428;2024-02-21T00:49:26;13.05;;;6.15;;
82871;SDS011;72646;43.596;1.428;2024-02-21T00:51:52;12.77;;;6.13;;
82871;SDS011;72646;43.596;1.428;2024-02-21T00:54:17;13.63;;;5.93;;
82871;SDS011;72646;43.596;1.428;2024-02-21T00:56:43;12.45;;;5.80;;
82871;SDS011;72646;43.596;1.428;2024-02-21T00:59:08;13.63;;;6.00;;
82871;SDS011;72646;43.596;1.428;2024-02-21T01:01:34;13.82;;;6.65;;
82871;SDS011;72646;43.596;1.428;2024-02-21T01:03:59;11.85;;;6.38;;
82871;SDS011;72646;43.596;1.428;2024-02-21T01:06:25;13.10;;;5.88;;
82871;SDS011;72646;43.596;1.428;2024-02-21T01:08:50;12.63;;;6.10;;
82871;SDS011;72646;43.596;1.428;2024-02-21T01:11:16;12.65;;;6.18;;
82871;SDS011;72646;43.596;1.428;2024-02-21T01:13:44;13.60;;;6.03;;
82871;SDS011;72646;43.596;1.428;2024-02-21T01:16:10;12.38;;;6.18;;
82871;SDS011;72646;43.596;1.428;2024-02-21T01:18:38;12.35;;;6.25;;
82871;SDS011;72646;43.596;1.428;2024-02-21T01:21:07;11.80;;;5.68;;
82871;SDS011;72646;43.596;1.428;2024-02-21T01:23:36;12.27;;;5.80;;
82871;SDS011;72646;43.596;1.428;2024-02-21T01:26:02;11.15;;;5.70;;
82871;SDS011;72646;43.596;1.428;2024-02-21T01:28:29;11.50;;;5.60;;
82871;SDS011;72646;43.596;1.428;2024-02-21T01:30:55;12.48;;;6.00;;
82871;SDS011;72646;43.596;1.428;2024-02-21T01:33:21;10.68;;;5.40;;
82871;SDS011;72646;43.596;1.428;2024-02-21T01:35:46;11.60;;;5.72;;
82871;SDS011;72646;43.596;1.428;2024-02-21T01:38:12;11.32;;;5.40;;
82871;SDS011;72646;43.596;1.428;2024-02-21T01:40:38;12.10;;;5.93;;
82871;SDS011;72646;43.596;1.428;2024-02-21T01:43:03;10.93;;;5.28;;
82871;SDS011;72646;43.596;1.428;2024-02-21T01:45:40;10.85;;;5.40;;
82871;SDS011;72646;43.596;1.428;2024-02-21T01:48:05;9.82;;;5.32;;
82871;SDS011;72646;43.596;1.428;2024-02-21T01:50:31;11.35;;;5.22;;
82871;SDS011;72646;43.596;1.428;2024-02-21T01:52:57;11.75;;;5.28;;
82871;SDS011;72646;43.596;1.428;2024-02-21T01:55:22;11.75;;;5.25;;
82871;SDS011;72646;43.596;1.428;2024-02-21T01:57:48;10.30;;;5.50;;
82871;SDS011;72646;43.596;1.428;2024-02-21T02:00:13;10.27;;;5.15;;
82871;SDS011;72646;43.596;1.428;2024-02-21T02:02:39;10.93;;;5.55;;
82871;SDS011;72646;43.596;1.428;2024-02-21T02:05:07;11.25;;;5.35;;
82871;SDS011;72646;43.596;1.428;2024-02-21T02:07:33;12.02;;;5.32;;
82871;SDS011;72646;43.596;1.428;2024-02-21T02:09:59;10.77;;;5.22;;
82871;SDS011;72646;43.596;1.428;2024-02-21T02:12:24;11.30;;;5.60;;
82871;SDS011;72646;43.596;1.428;2024-02-21T02:15:00;10.95;;;5.15;;
82871;SDS011;72646;43.596;1.428;2024-02-21T02:17:26;12.82;;;5.35;;
82871;SDS011;72646;43.596;1.428;2024-02-21T02:19:51;10.73;;;5.30;;
82871;SDS011;72646;43.596;1.428;2024-02-21T02:22:18;9.95;;;4.80;;
82871;SDS011;72646;43.596;1.428;2024-02-21T02:24:47;9.95;;;4.70;;
82871;SDS011;72646;43.596;1.428;2024-02-21T02:27:13;11.07;;;4.95;;
82871;SDS011;72646;43.596;1.428;2024-02-21T02:29:38;10.30;;;5.13;;
82871;SDS011;72646;43.596;1.428;2024-02-21T02:32:04;9.15;;;4.60;;
82871;SDS011;72646;43.596;1.428;2024-02-21T02:34:30;11.13;;;5.50;;
82871;SDS011;72646;43.596;1.428;2024-02-21T02:36:55;9.15;;;4.32;;
82871;SDS011;72646;43.596;1.428;2024-02-21T02:39:21;11.52;;;4.68;;
82871;SDS011;72646;43.596;1.428;2024-02-21T02:41:46;9.57;;;4.70;;
82871;SDS011;72646;43.596;1.428;2024-02-21T02:44:12;10.07;;;4.50;;
82871;SDS011;72646;43.596;1.428;2024-02-21T02:46:39;9.98;;;4.45;;
82871;SDS011;72646;43.596;1.428;2024-02-21T02:49:06;9.82;;;4.82;;
82871;SDS011;72646;43.596;1.428;2024-02-21T02:51:31;9.77;;;4.90;;
82871;SDS011;72646;43.596;1.428;2024-02-21T02:53:57;10.10;;;4.78;;
82871;SDS011;72646;43.596;1.428;2024-02-21T02:56:22;11.02;;;4.97;;
82871;SDS011;72646;43.596;1.428;2024-02-21T02:58:48;10.70;;;4.95;;
82871;SDS011;72646;43.596;1.428;2024-02-21T03:01:13;9.15;;;4.45;;
82871;SDS011;72646;43.596;1.428;2024-02-21T03:03:39;9.82;;;4.28;;
82871;SDS011;72646;43.596;1.428;2024-02-21T03:06:05;10.13;;;4.75;;
82871;SDS011;72646;43.596;1.428;2024-02-21T03:08:30;9.25;;;4.38;;
82871;SDS011;72646;43.596;1.428;2024-02-21T03:10:57;8.88;;;4.30;;
82871;SDS011;72646;43.596;1.428;2024-02-21T03:13:24;9.15;;;4.50;;
82871;SDS011;72646;43.596;1.428;2024-02-21T03:15:50;11.32;;;5.05;;
82871;SDS011;72646;43.596;1.428;2024-02-21T03:18:15;9.60;;;4.43;;
82871;SDS011;72646;43.596;1.428;2024-02-21T03:20:41;10.13;;;4.35;;
82871;SDS011;72646;43.596;1.428;2024-02-21T03:23:06;9.27;;;4.47;;
82871;SDS011;72646;43.596;1.428;2024-02-21T03:25:32;9.30;;;4.32;;
82871;SDS011;72646;43.596;1.428;2024-02-21T03:27:57;9.75;;;4.20;;
82871;SDS011;72646;43.596;1.428;2024-02-21T03:30:23;8.95;;;4.13;;
82871;SDS011;72646;43.596;1.428;2024-02-21T03:32:48;10.48;;;3.97;;
82871;SDS011;72646;43.596;1.428;2024-02-21T03:35:14;8.63;;;4.35;;
82871;SDS011;72646;43.596;1.428;2024-02-21T03:37:39;10.02;;;4.13;;
82871;SDS011;72646;43.596;1.428;2024-02-21T03:40:08;8.45;;;4.00;;
82871;SDS011;72646;43.596;1.428;2024-02-21T03:42:34;9.20;;;3.85;;
82871;SDS011;72646;43.596;1.428;2024-02-21T03:45:00;8.55;;;3.97;;
82871;SDS011;72646;43.596;1.428;2024-02-21T03:47:25;9.88;;;3.95;;
82871;SDS011;72646;43.596;1.428;2024-02-21T03:49:50;9.05;;;4.10;;
82871;SDS011;72646;43.596;1.428;2024-02-21T03:52:16;9.35;;;4.25;;
82871;SDS011;72646;43.596;1.428;2024-02-21T03:54:42;7.85;;;3.70;;
82871;SDS011;72646;43.596;1.428;2024-02-21T03:57:07;8.07;;;3.85;;
82871;SDS011;72646;43.596;1.428;2024-02-21T03:59:33;9.43;;;4.00;;
82871;SDS011;72646;43.596;1.428;2024-02-21T04:01:58;9.75;;;3.95;;
82871;SDS011;72646;43.596;1.428;2024-02-21T04:04:24;8.45;;;3.72;;
82871;SDS011;72646;43.596;1.428;2024-02-21T04:06:50;8.48;;;3.72;;
82871;SDS011;72646;43.596;1.428;2024-02-21T04:09:16;8.27;;;3.67;;
82871;SDS011;72646;43.596;1.428;2024-02-21T04:11:42;9.23;;;3.95;;
82871;SDS011;72646;43.596;1.428;2024-02-21T04:14:07;8.10;;;3.60;;
82871;SDS011;72646;43.596;1.428;2024-02-21T04:16:33;7.93;;;3.55;;
82871;SDS011;72646;43.596;1.428;2024-02-21T04:21:24;7.73;;;3.63;;
82871;SDS011;72646;43.596;1.428;2024-02-21T04:23:50;9.23;;;3.53;;
82871;SDS011;72646;43.596;1.428;2024-02-21T04:26:15;8.13;;;3.47;;
82871;SDS011;72646;43.596;1.428;2024-02-21T04:28:41;8.95;;;3.63;;
82871;SDS011;72646;43.596;1.428;2024-02-21T04:31:06;7.40;;;3.70;;
82871;SDS011;72646;43.596;1.428;2024-02-21T04:33:32;8.13;;;3.60;;
82871;SDS011;72646;43.596;1.428;2024-02-21T04:35:57;9.48;;;3.67;;
82871;SDS011;72646;43.596;1.428;2024-02-21T04:38:23;8.82;;;3.50;;
82871;SDS011;72646;43.596;1.428;2024-02-21T04:40:49;8.50;;;3.83;;
82871;SDS011;72646;43.596;1.428;2024-02-21T04:43:14;8.57;;;3.42;;
82871;SDS011;72646;43.596;1.428;2024-02-21T04:45:40;7.78;;;3.72;;
82871;SDS011;72646;43.596;1.428;2024-02-21T04:48:05;9.60;;;3.70;;
82871;SDS011;72646;43.596;1.428;2024-02-21T04:50:31;8.40;;;3.83;;
82871;SDS011;72646;43.596;1.428;2024-02-21T04:52:56;8.65;;;3.60;;
82871;SDS011;72646;43.596;1.428;2024-02-21T04:55:21;9.80;;;3.88;;
82871;SDS011;72646;43.596;1.428;2024-02-21T04:57:47;8.68;;;3.75;;
82871;SDS011;72646;43.596;1.428;2024-02-21T05:00:12;8.82;;;3.95;;
82871;SDS011;72646;43.596;1.428;2024-02-21T05:02:38;8.73;;;3.85;;
82871;SDS011;72646;43.596;1.428;2024-02-21T05:05:04;8.43;;;3.90;;
82871;SDS011;72646;43.596;1.428;2024-02-21T05:07:29;15.15;;;3.60;;
82871;SDS011;72646;43.596;1.428;2024-02-21T05:09:54;8.82;;;3.50;;
82871;SDS011;72646;43.596;1.428;2024-02-21T05:12:20;10.05;;;3.45;;
82871;SDS011;72646;43.596;1.428;2024-02-21T05:14:45;8.07;;;3.40;;
82871;SDS011;72646;43.596;1.428;2024-02-21T05:17:10;7.47;;;3.50;;
82871;SDS011;72646;43.596;1.428;2024-02-21T05:19:36;8.52;;;3.42;;
82871;SDS011;72646;43.596;1.428;2024-02-21T05:22:01;8.13;;;3.50;;
82871;SDS011;72646;43.596;1.428;2024-02-21T05:24:27;7.50;;;3.33;;
82871;SDS011;72646;43.596;1.428;2024-02-21T05:26:53;8.93;;;3.72;;
82871;SDS011;72646;43.596;1.428;2024-02-21T05:34:18;7.32;;;3.40;;
82871;SDS011;72646;43.596;1.428;2024-02-21T05:36:45;8.73;;;3.95;;
82871;SDS011;72646;43.596;1.428;2024-02-21T05:39:11;8.45;;;3.30;;
82871;SDS011;72646;43.596;1.428;2024-02-21T05:41:37;8.18;;;3.50;;
82871;SDS011;72646;43.596;1.428;2024-02-21T05:44:02;7.72;;;3.30;;
82871;SDS011;72646;43.596;1.428;2024-02-21T05:46:27;9.50;;;3.40;;
82871;SDS011;72646;43.596;1.428;2024-02-21T05:48:53;8.02;;;3.40;;
82871;SDS011;72646;43.596;1.428;2024-02-21T05:51:18;8.32;;;3.40;;
82871;SDS011;72646;43.596;1.428;2024-02-21T05:53:44;7.90;;;3.63;;
82871;SDS011;72646;43.596;1.428;2024-02-21T05:56:10;7.72;;;3.20;;
82871;SDS011;72646;43.596;1.428;2024-02-21T05:58:36;7.40;;;3.30;;
82871;SDS011;72646;43.596;1.428;2024-02-21T06:01:02;8.57;;;3.40;;
82871;SDS011;72646;43.596;1.428;2024-02-21T06:05:54;9.27;;;3.33;;
82871;SDS011;72646;43.596;1.428;2024-02-21T06:08:19;8.15;;;3.15;;
82871;SDS011;72646;43.596;1.428;2024-02-21T06:10:45;7.78;;;3.20;;
82871;SDS011;72646;43.596;1.428;2024-02-21T06:13:10;8.15;;;3.47;;
82871;SDS011;72646;43.596;1.428;2024-02-21T06:15:36;8.68;;;4.03;;
82871;SDS011;72646;43.596;1.428;2024-02-21T06:18:01;9.38;;;3.45;;
82871;SDS011;72646;43.596;1.428;2024-02-21T06:20:27;7.65;;;3.20;;
82871;SDS011;72646;43.596;1.428;2024-02-21T06:22:53;7.03;;;3.10;;
82871;SDS011;72646;43.596;1.428;2024-02-21T06:25:18;9.02;;;3.15;;
82871;SDS011;72646;43.596;1.428;2024-02-21T06:27:43;7.22;;;3.00;;
82871;SDS011;72646;43.596;1.428;2024-02-21T06:30:09;9.18;;;3.33;;
82871;SDS011;72646;43.596;1.428;2024-02-21T06:32:35;8.30;;;3.10;;
82871;SDS011;72646;43.596;1.428;2024-02-21T06:35:00;9.15;;;3.40;;
82871;SDS011;72646;43.596;1.428;2024-02-21T06:37:27;7.18;;;3.08;;
82871;SDS011;72646;43.596;1.428;2024-02-21T06:39:52;8.85;;;3.40;;
82871;SDS011;72646;43.596;1.428;2024-02-21T06:42:18;7.82;;;3.38;;
82871;SDS011;72646;43.596;1.428;2024-02-21T06:44:44;8.20;;;3.30;;
82871;SDS011;72646;43.596;1.428;2024-02-21T06:47:09;7.68;;;3.00;;
82871;SDS011;72646;43.596;1.428;2024-02-21T06:49:35;8.20;;;3.13;;
82871;SDS011;72646;43.596;1.428;2024-02-21T06:52:03;8.55;;;3.20;;
82871;SDS011;72646;43.596;1.428;2024-02-21T06:54:29;9.13;;;3.15;;
82871;SDS011;72646;43.596;1.428;2024-02-21T06:56:55;8.77;;;3.20;;
82871;SDS011;72646;43.596;1.428;2024-02-21T06:59:20;8.05;;;3.45;;
82871;SDS011;72646;43.596;1.428;2024-02-21T07:01:49;8.68;;;3.40;;
82871;SDS011;72646;43.596;1.428;2024-02-21T07:04:18;8.30;;;3.58;;
82871;SDS011;72646;43.596;1.428;2024-02-21T07:06:43;10.52;;;3.60;;
82871;SDS011;72646;43.596;1.428;2024-02-21T07:09:08;8.10;;;3.40;;
82871;SDS011;72646;43.596;1.428;2024-02-21T07:11:34;7.78;;;3.55;;
82871;SDS011;72646;43.596;1.428;2024-02-21T07:13:59;8.10;;;3.08;;
82871;SDS011;72646;43.596;1.428;2024-02-21T07:16:25;8.82;;;3.70;;
82871;SDS011;72646;43.596;1.428;2024-02-21T07:18:51;11.57;;;3.92;;
82871;SDS011;72646;43.596;1.428;2024-02-21T07:21:17;10.52;;;3.80;;
82871;SDS011;72646;43.596;1.428;2024-02-21T07:23:42;16.95;;;4.15;;
82871;SDS011;72646;43.596;1.428;2024-02-21T07:26:07;13.65;;;3.75;;
82871;SDS011;72646;43.596;1.428;2024-02-21T07:28:33;16.20;;;4.07;;
82871;SDS011;72646;43.596;1.428;2024-02-21T07:30:59;15.75;;;4.38;;
82871;SDS011;72646;43.596;1.428;2024-02-21T07:33:25;18.30;;;4.03;;
82871;SDS011;72646;43.596;1.428;2024-02-21T07:35:51;21.90;;;4.95;;
82871;SDS011;72646;43.596;1.428;2024-02-21T07:38:16;10.88;;;4.50;;
82871;SDS011;72646;43.596;1.428;2024-02-21T07:40:46;12.65;;;3.65;;
82871;SDS011;72646;43.596;1.428;2024-02-21T07:43:11;12.02;;;3.80;;
82871;SDS011;72646;43.596;1.428;2024-02-21T07:45:37;11.20;;;3.65;;
82871;SDS011;72646;43.596;1.428;2024-02-21T07:48:04;12.68;;;3.67;;
82871;SDS011;72646;43.596;1.428;2024-02-21T07:50:33;18.48;;;4.15;;
82871;SDS011;72646;43.596;1.428;2024-02-21T07:52:58;11.63;;;4.18;;
82871;SDS011;72646;43.596;1.428;2024-02-21T07:55:23;10.98;;;3.55;;
82871;SDS011;72646;43.596;1.428;2024-02-21T07:57:49;15.60;;;3.95;;
82871;SDS011;72646;43.596;1.428;2024-02-21T08:00:15;11.65;;;3.72;;
82871;SDS011;72646;43.596;1.428;2024-02-21T08:02:45;10.35;;;3.47;;
82871;SDS011;72646;43.596;1.428;2024-02-21T08:07:37;11.95;;;3.50;;
82871;SDS011;72646;43.596;1.428;2024-02-21T08:10:03;9.55;;;3.30;;
82871;SDS011;72646;43.596;1.428;2024-02-21T08:12:29;12.30;;;3.63;;
82871;SDS011;72646;43.596;1.428;2024-02-21T08:14:54;11.30;;;4.22;;
82871;SDS011;72646;43.596;1.428;2024-02-21T08:17:20;14.80;;;4.38;;
82871;SDS011;72646;43.596;1.428;2024-02-21T08:19:45;9.52;;;3.20;;
82871;SDS011;72646;43.596;1.428;2024-02-21T08:22:11;9.80;;;3.55;;
82871;SDS011;72646;43.596;1.428;2024-02-21T08:24:36;9.15;;;3.00;;
82871;SDS011;72646;43.596;1.428;2024-02-21T08:27:01;9.77;;;3.67;;
82871;SDS011;72646;43.596;1.428;2024-02-21T08:29:27;10.93;;;3.20;;
82871;SDS011;72646;43.596;1.428;2024-02-21T08:31:53;8.60;;;3.15;;
82871;SDS011;72646;43.596;1.428;2024-02-21T08:34:18;7.95;;;3.10;;
82871;SDS011;72646;43.596;1.428;2024-02-21T08:36:44;8.50;;;2.83;;
82871;SDS011;72646;43.596;1.428;2024-02-21T08:39:09;11.25;;;3.10;;
82871;SDS011;72646;43.596;1.428;2024-02-21T08:41:36;8.68;;;2.92;;
82871;SDS011;72646;43.596;1.428;2024-02-21T08:44:01;8.55;;;3.03;;
82871;SDS011;72646;43.596;1.428;2024-02-21T08:46:27;9.70;;;3.10;;
82871;SDS011;72646;43.596;1.428;2024-02-21T08:48:53;11.10;;;3.15;;
82871;SDS011;72646;43.596;1.428;2024-02-21T08:53:45;9.07;;;3.00;;
82871;SDS011;72646;43.596;1.428;2024-02-21T08:56:10;7.30;;;2.80;;
82871;SDS011;72646;43.596;1.428;2024-02-21T08:58:36;8.80;;;2.80;;
82871;SDS011;72646;43.596;1.428;2024-02-21T09:01:05;8.93;;;2.97;;
82871;SDS011;72646;43.596;1.428;2024-02-21T09:03:37;7.93;;;2.88;;
82871;SDS011;72646;43.596;1.428;2024-02-21T09:06:04;9.00;;;3.20;;
82871;SDS011;72646;43.596;1.428;2024-02-21T09:08:31;9.40;;;3.38;;
82871;SDS011;72646;43.596;1.428;2024-02-21T09:10:56;9.25;;;3.00;;
82871;SDS011;72646;43.596;1.428;2024-02-21T09:13:22;7.70;;;2.83;;
82871;SDS011;72646;43.596;1.428;2024-02-21T09:15:48;8.82;;;3.10;;
82871;SDS011;72646;43.596;1.428;2024-02-21T09:18:14;12.45;;;3.15;;
82871;SDS011;72646;43.596;1.428;2024-02-21T09:20:41;9.07;;;2.97;;
82871;SDS011;72646;43.596;1.428;2024-02-21T09:23:08;8.02;;;2.97;;
82871;SDS011;72646;43.596;1.428;2024-02-21T09:25:33;7.85;;;3.08;;
82871;SDS011;72646;43.596;1.428;2024-02-21T09:28:00;10.93;;;3.13;;
82871;SDS011;72646;43.596;1.428;2024-02-21T09:30:27;8.45;;;3.00;;
82871;SDS011;72646;43.596;1.428;2024-02-21T09:32:52;7.78;;;3.03;;
82871;SDS011;72646;43.596;1.428;2024-02-21T09:35:18;9.85;;;3.28;;
82871;SDS011;72646;43.596;1.428;2024-02-21T09:37:43;7.93;;;3.30;;
82871;SDS011;72646;43.596;1.428;2024-02-21T09:40:09;9.35;;;2.92;;
82871;SDS011;72646;43.596;1.428;2024-02-21T09:42:38;7.70;;;3.03;;
82871;SDS011;72646;43.596;1.428;2024-02-21T09:45:19;9.55;;;3.08;;
82871;SDS011;72646;43.596;1.428;2024-02-21T09:50:21;7.28;;;3.42;;
82871;SDS011;72646;43.596;1.428;2024-02-21T09:52:48;8.15;;;3.05;;
82871;SDS011;72646;43.596;1.428;2024-02-21T09:55:13;8.50;;;2.80;;
82871;SDS011;72646;43.596;1.428;2024-02-21T09:57:48;8.35;;;3.03;;
82871;SDS011;72646;43.596;1.428;2024-02-21T10:00:15;8.40;;;2.88;;
82871;SDS011;72646;43.596;1.428;2024-02-21T10:02:46;9.20;;;2.97;;
82871;SDS011;72646;43.596;1.428;2024-02-21T10:05:14;7.18;;;2.78;;
82871;SDS011;72646;43.596;1.428;2024-02-21T10:07:39;11.18;;;3.03;;
82871;SDS011;72646;43.596;1.428;2024-02-21T10:10:05;8.38;;;2.95;;
82871;SDS011;72646;43.596;1.428;2024-02-21T10:12:31;9.65;;;2.80;;
82871;SDS011;72646;43.596;1.428;2024-02-21T10:15:00;7.85;;;2.75;;
82871;SDS011;72646;43.596;1.428;2024-02-21T10:19:55;9.60;;;3.58;;
82871;SDS011;72646;43.596;1.428;2024-02-21T10:22:31;6.90;;;2.80;;
82871;SDS011;72646;43.596;1.428;2024-02-21T10:25:06;9.07;;;3.00;;
82871;SDS011;72646;43.596;1.428;2024-02-21T10:27:36;8.23;;;2.75;;
82871;SDS011;72646;43.596;1.428;2024-02-21T10:30:08;7.50;;;2.80;;
82871;SDS011;72646;43.596;1.428;2024-02-21T10:32:49;8.15;;;2.72;;
82871;SDS011;72646;43.596;1.428;2024-02-21T10:37:54;8.13;;;2.60;;
82871;SDS011;72646;43.596;1.428;2024-02-21T10:40:25;8.02;;;2.63;;
82871;SDS011;72646;43.596;1.428;2024-02-21T10:42:58;6.72;;;2.28;;
82871;SDS011;72646;43.596;1.428;2024-02-21T10:45:31;7.45;;;2.88;;
82871;SDS011;72646;43.596;1.428;2024-02-21T10:48:07;7.40;;;2.30;;
82871;SDS011;72646;43.596;1.428;2024-02-21T10:50:56;6.32;;;2.13;;
82871;SDS011;72646;43.596;1.428;2024-02-21T10:56:22;7.70;;;2.30;;
82871;SDS011;72646;43.596;1.428;2024-02-21T10:58:53;7.70;;;2.38;;
82871;SDS011;72646;43.596;1.428;2024-02-21T11:01:21;7.40;;;2.15;;
82871;SDS011;72646;43.596;1.428;2024-02-21T11:03:48;7.15;;;2.47;;
82871;SDS011;72646;43.596;1.428;2024-02-21T11:06:19;7.80;;;2.45;;
82871;SDS011;72646;43.596;1.428;2024-02-21T11:08:47;7.07;;;2.10;;
82871;SDS011;72646;43.596;1.428;2024-02-21T11:11:13;8.13;;;2.28;;
82871;SDS011;72646;43.596;1.428;2024-02-21T11:13:43;6.78;;;2.20;;
82871;SDS011;72646;43.596;1.428;2024-02-21T11:16:11;6.63;;;2.00;;
82871;SDS011;72646;43.596;1.428;2024-02-21T11:18:46;7.75;;;2.35;;
82871;SDS011;72646;43.596;1.428;2024-02-21T11:21:11;8.73;;;2.58;;
82871;SDS011;72646;43.596;1.428;2024-02-21T11:23:36;6.43;;;1.98;;
82871;SDS011;72646;43.596;1.428;2024-02-21T11:26:08;7.13;;;2.30;;
82871;SDS011;72646;43.596;1.428;2024-02-21T11:28:34;7.20;;;2.15;;
82871;SDS011;72646;43.596;1.428;2024-02-21T11:31:09;6.32;;;1.92;;
82871;SDS011;72646;43.596;1.428;2024-02-21T11:33:42;5.93;;;1.95;;
82871;SDS011;72646;43.596;1.428;2024-02-21T11:36:11;7.13;;;2.30;;
82871;SDS011;72646;43.596;1.428;2024-02-21T11:38:49;5.95;;;2.00;;
82871;SDS011;72646;43.596;1.428;2024-02-21T11:43:41;6.13;;;2.00;;
82871;SDS011;72646;43.596;1.428;2024-02-21T11:46:06;6.22;;;2.05;;
82871;SDS011;72646;43.596;1.428;2024-02-21T11:48:32;5.63;;;1.90;;
82871;SDS011;72646;43.596;1.428;2024-02-21T11:50:57;6.65;;;2.05;;
82871;SDS011;72646;43.596;1.428;2024-02-21T11:53:23;6.50;;;2.10;;
82871;SDS011;72646;43.596;1.428;2024-02-21T11:55:49;5.70;;;1.80;;
82871;SDS011;72646;43.596;1.428;2024-02-21T11:58:15;5.97;;;2.00;;
82871;SDS011;72646;43.596;1.428;2024-02-21T12:00:41;5.47;;;1.92;;
82871;SDS011;72646;43.596;1.428;2024-02-21T12:03:07;6.68;;;2.30;;
82871;SDS011;72646;43.596;1.428;2024-02-21T12:05:33;6.07;;;2.10;;
82871;SDS011;72646;43.596;1.428;2024-02-21T12:07:59;5.97;;;1.98;;
82871;SDS011;72646;43.596;1.428;2024-02-21T12:10:28;7.15;;;2.20;;
82871;SDS011;72646;43.596;1.428;2024-02-21T12:12:53;6.60;;;2.00;;
82871;SDS011;72646;43.596;1.428;2024-02-21T12:15:23;6.07;;;2.10;;
82871;SDS011;72646;43.596;1.428;2024-02-21T12:17:48;6.88;;;1.90;;
82871;SDS011;72646;43.596;1.428;2024-02-21T12:20:16;5.57;;;1.77;;
82871;SDS011;72646;43.596;1.428;2024-02-21T12:22:42;6.63;;;1.90;;
82871;SDS011;72646;43.596;1.428;2024-02-21T12:25:21;6.65;;;2.00;;
82871;SDS011;72646;43.596;1.428;2024-02-21T12:27:52;7.38;;;2.28;;
82871;SDS011;72646;43.596;1.428;2024-02-21T12:30:17;5.85;;;1.83;;
82871;SDS011;72646;43.596;1.428;2024-02-21T12:32:44;7.90;;;2.00;;
82871;SDS011;72646;43.596;1.428;2024-02-21T12:35:10;5.95;;;2.00;;
82871;SDS011;72646;43.596;1.428;2024-02-21T12:37:36;6.40;;;1.90;;
82871;SDS011;72646;43.596;1.428;2024-02-21T12:40:03;6.72;;;2.00;;
82871;SDS011;72646;43.596;1.428;2024-02-21T12:42:31;6.35;;;1.83;;
82871;SDS011;72646;43.596;1.428;2024-02-21T12:44:58;6.20;;;1.70;;
82871;SDS011;72646;43.596;1.428;2024-02-21T12:47:23;6.57;;;2.00;;
82871;SDS011;72646;43.596;1.428;2024-02-21T12:49:51;6.18;;;2.00;;
82871;SDS011;72646;43.596;1.428;2024-02-21T12:52:19;6.75;;;1.90;;
82871;SDS011;72646;43.596;1.428;2024-02-21T12:54:45;6.18;;;1.77;;
82871;SDS011;72646;43.596;1.428;2024-02-21T12:57:10;6.75;;;1.70;;
82871;SDS011;72646;43.596;1.428;2024-02-21T12:59:36;5.95;;;1.67;;
82871;SDS011;72646;43.596;1.428;2024-02-21T13:02:01;7.13;;;2.13;;
82871;SDS011;72646;43.596;1.428;2024-02-21T13:04:27;5.78;;;1.80;;
82871;SDS011;72646;43.596;1.428;2024-02-21T13:06:52;5.72;;;1.50;;
82871;SDS011;72646;43.596;1.428;2024-02-21T13:09:18;6.05;;;1.73;;
82871;SDS011;72646;43.596;1.428;2024-02-21T13:11:44;6.05;;;1.70;;
82871;SDS011;72646;43.596;1.428;2024-02-21T13:14:11;5.75;;;1.70;;
82871;SDS011;72646;43.596;1.428;2024-02-21T13:16:36;5.95;;;1.70;;
82871;SDS011;72646;43.596;1.428;2024-02-21T13:19:07;6.95;;;2.05;;
82871;SDS011;72646;43.596;1.428;2024-02-21T13:21:34;5.80;;;1.70;;
82871;SDS011;72646;43.596;1.428;2024-02-21T13:24:00;6.07;;;1.77;;
82871;SDS011;72646;43.596;1.428;2024-02-21T13:26:26;5.70;;;1.65;;
82871;SDS011;72646;43.596;1.428;2024-02-21T13:28:52;5.05;;;1.60;;
82871;SDS011;72646;43.596;1.428;2024-02-21T13:31:18;4.63;;;1.40;;
82871;SDS011;72646;43.596;1.428;2024-02-21T13:33:43;6.60;;;1.85;;
82871;SDS011;72646;43.596;1.428;2024-02-21T13:36:11;6.32;;;1.73;;
82871;SDS011;72646;43.596;1.428;2024-02-21T13:38:37;5.47;;;1.60;;
82871;SDS011;72646;43.596;1.428;2024-02-21T13:41:03;6.15;;;1.90;;
82871;SDS011;72646;43.596;1.428;2024-02-21T13:43:32;6.28;;;1.50;;
82871;SDS011;72646;43.596;1.428;2024-02-21T13:45:58;5.15;;;1.60;;
82871;SDS011;72646;43.596;1.428;2024-02-21T13:48:24;5.50;;;1.65;;
82871;SDS011;72646;43.596;1.428;2024-02-21T13:50:50;5.80;;;1.67;;
82871;SDS011;72646;43.596;1.428;2024-02-21T13:53:15;5.10;;;1.45;;
82871;SDS011;72646;43.596;1.428;2024-02-21T13:55:43;5.35;;;1.52;;
82871;SDS011;72646;43.596;1.428;2024-02-21T13:58:12;6.68;;;1.73;;
82871;SDS011;72646;43.596;1.428;2024-02-21T14:00:38;4.93;;;1.52;;
82871;SDS011;72646;43.596;1.428;2024-02-21T14:03:03;6.68;;;1.60;;
82871;SDS011;72646;43.596;1.428;2024-02-21T14:05:29;7.25;;;1.80;;
82871;SDS011;72646;43.596;1.428;2024-02-21T14:07:54;6.22;;;1.73;;
82871;SDS011;72646;43.596;1.428;2024-02-21T14:10:20;5.65;;;1.60;;
82871;SDS011;72646;43.596;1.428;2024-02-21T14:12:46;5.43;;;1.73;;
82871;SDS011;72646;43.596;1.428;2024-02-21T14:17:38;5.80;;;1.60;;
82871;SDS011;72646;43.596;1.428;2024-02-21T14:20:04;5.95;;;1.58;;
82871;SDS011;72646;43.596;1.428;2024-02-21T14:22:30;5.55;;;1.60;;
82871;SDS011;72646;43.596;1.428;2024-02-21T14:24:55;5.22;;;1.70;;
82871;SDS011;72646;43.596;1.428;2024-02-21T14:27:21;5.13;;;1.50;;
82871;SDS011;72646;43.596;1.428;2024-02-21T14:29:47;5.57;;;1.60;;
82871;SDS011;72646;43.596;1.428;2024-02-21T14:32:12;4.88;;;1.50;;
82871;SDS011;72646;43.596;1.428;2024-02-21T14:34:38;6.15;;;1.67;;
82871;SDS011;72646;43.596;1.428;2024-02-21T14:37:03;5.00;;;1.45;;
82871;SDS011;72646;43.596;1.428;2024-02-21T14:39:29;7.28;;;1.83;;
82871;SDS011;72646;43.596;1.428;2024-02-21T14:41:55;6.20;;;1.77;;
82871;SDS011;72646;43.596;1.428;2024-02-21T14:44:20;6.20;;;1.60;;
82871;SDS011;72646;43.596;1.428;2024-02-21T14:46:46;5.68;;;1.73;;
82871;SDS011;72646;43.596;1.428;2024-02-21T14:49:11;5.22;;;1.48;;
82871;SDS011;72646;43.596;1.428;2024-02-21T14:51:36;6.28;;;1.80;;
82871;SDS011;72646;43.596;1.428;2024-02-21T14:54:02;5.43;;;1.48;;
82871;SDS011;72646;43.596;1.428;2024-02-21T14:56:29;7.22;;;1.60;;
82871;SDS011;72646;43.596;1.428;2024-02-21T14:58:56;7.45;;;1.80;;
82871;SDS011;72646;43.596;1.428;2024-02-21T15:01:22;5.25;;;1.40;;
82871;SDS011;72646;43.596;1.428;2024-02-21T15:03:47;4.78;;;1.40;;
82871;SDS011;72646;43.596;1.428;2024-02-21T15:06:12;6.68;;;1.80;;
82871;SDS011;72646;43.596;1.428;2024-02-21T15:08:38;4.97;;;1.50;;